sensor_id;sensor_type;location;lat;lon;timestamp;P1;durP1;ratioP1;P2;durP2;ratioP2
54831;SDS011;40730;53.068;6.572;2024-02-21T00:02:07;16.58;;;1.88;;
54831;SDS011;40730;53.068;6.572;2024-02-21T00:04:32;11.77;;;1.52;;
54831;SDS011;40730;53.068;6.572;2024-02-21T00:06:58;13.43;;;1.55;;
54831;SDS011;40730;53.068;6.572;2024-02-21T00:09:24;13.35;;;1.33;;
54831;SDS011;40730;53.068;6.572;2024-02-21T00:11:49;18.15;;;2.00;;
54831;SDS011;40730;53.068;6.572;2024-02-21T00:14:15;17.38;;;1.90;;
54831;SDS011;40730;53.068;6.572;2024-02-21T00:16:41;19.45;;;2.75;;
54831;SDS011;40730;53.068;6.572;2024-02-21T00:19:07;15.60;;;2.15;;
54831;SDS011;40730;53.068;6.572;2024-02-21T00:21:32;15.85;;;1.88;;
54831;SDS011;40730;53.068;6.572;2024-02-21T00:23:58;13.40;;;1.80;;
54831;SDS011;40730;53.068;6.572;2024-02-21T00:26:23;13.23;;;2.00;;
54831;SDS011;40730;53.068;6.572;2024-02-21T00:28:50;16.08;;;2.13;;
54831;SDS011;40730;53.068;6.572;2024-02-21T00:31:16;19.35;;;3.20;;
54831;SDS011;40730;53.068;6.572;2024-02-21T00:33:42;18.02;;;2.22;;
54831;SDS011;40730;53.068;6.572;2024-02-21T00:36:07;19.20;;;2.28;;
54831;SDS011;40730;53.068;6.572;2024-02-21T00:38:33;21.48;;;2.45;;
54831;SDS011;40730;53.068;6.572;2024-02-21T00:40:58;14.68;;;1.92;;
54831;SDS011;40730;53.068;6.572;2024-02-21T00:43:24;15.60;;;2.70;;
54831;SDS011;40730;53.068;6.572;2024-02-21T00:45:50;22.33;;;2.47;;
54831;SDS011;40730;53.068;6.572;2024-02-21T00:48:15;25.60;;;2.88;;
54831;SDS011;40730;53.068;6.572;2024-02-21T00:50:41;19.45;;;3.10;;
54831;SDS011;40730;53.068;6.572;2024-02-21T00:53:07;16.00;;;2.80;;
54831;SDS011;40730;53.068;6.572;2024-02-21T00:55:32;17.70;;;3.05;;
54831;SDS011;40730;53.068;6.572;2024-02-21T00:57:59;14.65;;;3.00;;
54831;SDS011;40730;53.068;6.572;2024-02-21T01:00:24;16.10;;;2.35;;
54831;SDS011;40730;53.068;6.572;2024-02-21T01:02:50;21.05;;;3.28;;
54831;SDS011;40730;53.068;6.572;2024-02-21T01:05:15;17.05;;;2.90;;
54831;SDS011;40730;53.068;6.572;2024-02-21T01:07:41;23.63;;;3.75;;
54831;SDS011;40730;53.068;6.572;2024-02-21T01:10:07;28.67;;;3.45;;
54831;SDS011;40730;53.068;6.572;2024-02-21T01:12:33;22.45;;;3.20;;
54831;SDS011;40730;53.068;6.572;2024-02-21T01:14:58;19.70;;;2.92;;
54831;SDS011;40730;53.068;6.572;2024-02-21T01:17:24;21.90;;;3.03;;
54831;SDS011;40730;53.068;6.572;2024-02-21T01:19:49;26.67;;;3.45;;
54831;SDS011;40730;53.068;6.572;2024-02-21T01:22:15;19.40;;;2.70;;
54831;SDS011;40730;53.068;6.572;2024-02-21T01:24:41;16.65;;;3.05;;
54831;SDS011;40730;53.068;6.572;2024-02-21T01:27:07;21.27;;;3.35;;
54831;SDS011;40730;53.068;6.572;2024-02-21T01:29:32;25.73;;;3.95;;
54831;SDS011;40730;53.068;6.572;2024-02-21T01:31:58;15.25;;;2.75;;
54831;SDS011;40730;53.068;6.572;2024-02-21T01:34:23;22.95;;;3.25;;
54831;SDS011;40730;53.068;6.572;2024-02-21T01:36:49;19.30;;;3.50;;
54831;SDS011;40730;53.068;6.572;2024-02-21T01:39:15;15.95;;;3.30;;
54831;SDS011;40730;53.068;6.572;2024-02-21T01:41:40;28.55;;;4.40;;
54831;SDS011;40730;53.068;6.572;2024-02-21T01:44:06;26.20;;;5.00;;
54831;SDS011;40730;53.068;6.572;2024-02-21T01:46:32;20.52;;;3.90;;
54831;SDS011;40730;53.068;6.572;2024-02-21T01:48:58;24.73;;;4.57;;
54831;SDS011;40730;53.068;6.572;2024-02-21T01:51:24;28.00;;;5.28;;
54831;SDS011;40730;53.068;6.572;2024-02-21T01:53:50;21.95;;;4.50;;
54831;SDS011;40730;53.068;6.572;2024-02-21T01:56:17;31.25;;;5.43;;
54831;SDS011;40730;53.068;6.572;2024-02-21T01:58:43;25.10;;;5.15;;
54831;SDS011;40730;53.068;6.572;2024-02-21T02:01:09;26.80;;;6.47;;
54831;SDS011;40730;53.068;6.572;2024-02-21T02:03:35;23.80;;;5.57;;
54831;SDS011;40730;53.068;6.572;2024-02-21T02:06:02;21.92;;;5.50;;
54831;SDS011;40730;53.068;6.572;2024-02-21T02:08:29;25.90;;;6.20;;
54831;SDS011;40730;53.068;6.572;2024-02-21T02:10:56;26.85;;;6.78;;
54831;SDS011;40730;53.068;6.572;2024-02-21T02:13:22;28.90;;;7.53;;
54831;SDS011;40730;53.068;6.572;2024-02-21T02:15:48;36.25;;;7.93;;
54831;SDS011;40730;53.068;6.572;2024-02-21T02:18:15;36.08;;;9.15;;
54831;SDS011;40730;53.068;6.572;2024-02-21T02:20:42;28.90;;;7.75;;
54831;SDS011;40730;53.068;6.572;2024-02-21T02:23:22;25.13;;;6.70;;
54831;SDS011;40730;53.068;6.572;2024-02-21T02:25:53;28.98;;;7.60;;
54831;SDS011;40730;53.068;6.572;2024-02-21T02:28:19;39.97;;;8.85;;
54831;SDS011;40730;53.068;6.572;2024-02-21T02:30:45;37.38;;;8.80;;
54831;SDS011;40730;53.068;6.572;2024-02-21T02:33:10;24.63;;;7.85;;
54831;SDS011;40730;53.068;6.572;2024-02-21T02:35:36;23.08;;;8.57;;
54831;SDS011;40730;53.068;6.572;2024-02-21T02:38:02;25.27;;;9.30;;
54831;SDS011;40730;53.068;6.572;2024-02-21T02:40:29;25.63;;;8.05;;
54831;SDS011;40730;53.068;6.572;2024-02-21T02:42:55;36.25;;;9.70;;
54831;SDS011;40730;53.068;6.572;2024-02-21T02:45:21;23.95;;;8.73;;
54831;SDS011;40730;53.068;6.572;2024-02-21T02:47:51;37.40;;;10.23;;
54831;SDS011;40730;53.068;6.572;2024-02-21T02:50:19;32.13;;;9.48;;
54831;SDS011;40730;53.068;6.572;2024-02-21T02:52:44;35.65;;;8.55;;
54831;SDS011;40730;53.068;6.572;2024-02-21T02:55:10;39.13;;;9.80;;
54831;SDS011;40730;53.068;6.572;2024-02-21T02:57:36;25.80;;;9.15;;
54831;SDS011;40730;53.068;6.572;2024-02-21T03:00:01;34.50;;;10.07;;
54831;SDS011;40730;53.068;6.572;2024-02-21T03:02:28;29.73;;;9.38;;
54831;SDS011;40730;53.068;6.572;2024-02-21T03:04:53;40.75;;;10.70;;
54831;SDS011;40730;53.068;6.572;2024-02-21T03:07:20;42.08;;;10.48;;
54831;SDS011;40730;53.068;6.572;2024-02-21T03:09:46;44.40;;;9.82;;
54831;SDS011;40730;53.068;6.572;2024-02-21T03:12:11;44.33;;;11.07;;
54831;SDS011;40730;53.068;6.572;2024-02-21T03:14:37;36.20;;;10.25;;
54831;SDS011;40730;53.068;6.572;2024-02-21T03:17:02;26.17;;;8.10;;
54831;SDS011;40730;53.068;6.572;2024-02-21T03:19:29;41.47;;;11.23;;
54831;SDS011;40730;53.068;6.572;2024-02-21T03:21:55;40.55;;;11.13;;
54831;SDS011;40730;53.068;6.572;2024-02-21T03:24:21;29.42;;;7.95;;
54831;SDS011;40730;53.068;6.572;2024-02-21T03:26:47;37.72;;;9.57;;
54831;SDS011;40730;53.068;6.572;2024-02-21T03:29:14;49.35;;;11.02;;
54831;SDS011;40730;53.068;6.572;2024-02-21T03:31:40;34.78;;;9.38;;
54831;SDS011;40730;53.068;6.572;2024-02-21T03:34:06;42.72;;;9.68;;
54831;SDS011;40730;53.068;6.572;2024-02-21T03:36:32;45.63;;;10.85;;
54831;SDS011;40730;53.068;6.572;2024-02-21T03:38:58;45.40;;;11.60;;
54831;SDS011;40730;53.068;6.572;2024-02-21T03:41:23;45.30;;;11.23;;
54831;SDS011;40730;53.068;6.572;2024-02-21T03:43:49;46.40;;;11.05;;
54831;SDS011;40730;53.068;6.572;2024-02-21T03:46:14;37.47;;;11.25;;
54831;SDS011;40730;53.068;6.572;2024-02-21T03:48:40;43.78;;;10.75;;
54831;SDS011;40730;53.068;6.572;2024-02-21T03:51:06;40.35;;;12.20;;
54831;SDS011;40730;53.068;6.572;2024-02-21T03:53:32;45.42;;;11.75;;
54831;SDS011;40730;53.068;6.572;2024-02-21T03:55:57;38.05;;;10.90;;
54831;SDS011;40730;53.068;6.572;2024-02-21T03:58:28;33.67;;;10.50;;
54831;SDS011;40730;53.068;6.572;2024-02-21T04:00:53;37.00;;;11.68;;
54831;SDS011;40730;53.068;6.572;2024-02-21T04:03:19;38.03;;;10.90;;
54831;SDS011;40730;53.068;6.572;2024-02-21T04:05:45;43.00;;;10.27;;
54831;SDS011;40730;53.068;6.572;2024-02-21T04:08:11;48.55;;;11.25;;
54831;SDS011;40730;53.068;6.572;2024-02-21T04:10:37;34.90;;;9.77;;
54831;SDS011;40730;53.068;6.572;2024-02-21T04:13:03;46.35;;;11.10;;
54831;SDS011;40730;53.068;6.572;2024-02-21T04:15:30;34.55;;;10.27;;
54831;SDS011;40730;53.068;6.572;2024-02-21T04:17:55;32.75;;;10.15;;
54831;SDS011;40730;53.068;6.572;2024-02-21T04:20:21;34.10;;;10.10;;
54831;SDS011;40730;53.068;6.572;2024-02-21T04:22:46;45.00;;;11.13;;
54831;SDS011;40730;53.068;6.572;2024-02-21T04:25:12;41.40;;;11.15;;
54831;SDS011;40730;53.068;6.572;2024-02-21T04:27:38;35.03;;;10.82;;
54831;SDS011;40730;53.068;6.572;2024-02-21T04:30:04;48.90;;;12.07;;
54831;SDS011;40730;53.068;6.572;2024-02-21T04:32:31;42.05;;;10.35;;
54831;SDS011;40730;53.068;6.572;2024-02-21T04:34:56;45.80;;;11.90;;
54831;SDS011;40730;53.068;6.572;2024-02-21T04:37:22;43.05;;;11.10;;
54831;SDS011;40730;53.068;6.572;2024-02-21T04:39:48;32.50;;;10.93;;
54831;SDS011;40730;53.068;6.572;2024-02-21T04:42:14;42.65;;;10.50;;
54831;SDS011;40730;53.068;6.572;2024-02-21T04:44:40;40.67;;;10.75;;
54831;SDS011;40730;53.068;6.572;2024-02-21T04:47:06;34.13;;;9.95;;
54831;SDS011;40730;53.068;6.572;2024-02-21T04:49:32;38.10;;;10.38;;
54831;SDS011;40730;53.068;6.572;2024-02-21T04:51:57;33.65;;;9.82;;
54831;SDS011;40730;53.068;6.572;2024-02-21T04:54:23;33.78;;;9.60;;
54831;SDS011;40730;53.068;6.572;2024-02-21T04:56:49;36.88;;;9.98;;
54831;SDS011;40730;53.068;6.572;2024-02-21T04:59:15;35.50;;;8.88;;
54831;SDS011;40730;53.068;6.572;2024-02-21T05:01:40;40.13;;;9.90;;
54831;SDS011;40730;53.068;6.572;2024-02-21T05:04:06;35.63;;;9.45;;
54831;SDS011;40730;53.068;6.572;2024-02-21T05:06:32;43.00;;;9.68;;
54831;SDS011;40730;53.068;6.572;2024-02-21T05:09:03;33.25;;;9.05;;
54831;SDS011;40730;53.068;6.572;2024-02-21T05:11:29;38.10;;;10.23;;
54831;SDS011;40730;53.068;6.572;2024-02-21T05:13:55;34.38;;;8.40;;
54831;SDS011;40730;53.068;6.572;2024-02-21T05:16:21;38.70;;;8.68;;
54831;SDS011;40730;53.068;6.572;2024-02-21T05:18:46;32.90;;;8.85;;
54831;SDS011;40730;53.068;6.572;2024-02-21T05:21:12;42.00;;;10.02;;
54831;SDS011;40730;53.068;6.572;2024-02-21T05:23:38;34.60;;;9.07;;
54831;SDS011;40730;53.068;6.572;2024-02-21T05:26:04;38.35;;;9.73;;
54831;SDS011;40730;53.068;6.572;2024-02-21T05:28:33;44.25;;;10.23;;
54831;SDS011;40730;53.068;6.572;2024-02-21T05:30:59;45.22;;;10.57;;
54831;SDS011;40730;53.068;6.572;2024-02-21T05:33:24;42.58;;;11.95;;
54831;SDS011;40730;53.068;6.572;2024-02-21T05:35:50;43.80;;;12.77;;
54831;SDS011;40730;53.068;6.572;2024-02-21T05:38:16;41.97;;;12.13;;
54831;SDS011;40730;53.068;6.572;2024-02-21T05:40:42;41.42;;;11.75;;
54831;SDS011;40730;53.068;6.572;2024-02-21T05:43:08;40.90;;;11.20;;
54831;SDS011;40730;53.068;6.572;2024-02-21T05:45:34;50.65;;;11.90;;
54831;SDS011;40730;53.068;6.572;2024-02-21T05:47:59;43.08;;;12.57;;
54831;SDS011;40730;53.068;6.572;2024-02-21T05:50:25;45.47;;;12.35;;
54831;SDS011;40730;53.068;6.572;2024-02-21T05:52:54;43.03;;;11.48;;
54831;SDS011;40730;53.068;6.572;2024-02-21T05:55:20;51.53;;;12.93;;
54831;SDS011;40730;53.068;6.572;2024-02-21T05:57:46;35.95;;;11.18;;
54831;SDS011;40730;53.068;6.572;2024-02-21T06:00:13;35.22;;;11.68;;
54831;SDS011;40730;53.068;6.572;2024-02-21T06:02:40;44.97;;;12.45;;
54831;SDS011;40730;53.068;6.572;2024-02-21T06:05:06;46.13;;;12.57;;
54831;SDS011;40730;53.068;6.572;2024-02-21T06:07:35;39.20;;;11.77;;
54831;SDS011;40730;53.068;6.572;2024-02-21T06:10:03;40.75;;;11.93;;
54831;SDS011;40730;53.068;6.572;2024-02-21T06:12:29;38.88;;;11.52;;
54831;SDS011;40730;53.068;6.572;2024-02-21T06:14:55;53.15;;;12.80;;
54831;SDS011;40730;53.068;6.572;2024-02-21T06:17:20;43.10;;;12.95;;
54831;SDS011;40730;53.068;6.572;2024-02-21T06:19:46;43.22;;;14.40;;
54831;SDS011;40730;53.068;6.572;2024-02-21T06:22:11;59.75;;;15.80;;
54831;SDS011;40730;53.068;6.572;2024-02-21T06:24:37;54.05;;;15.98;;
54831;SDS011;40730;53.068;6.572;2024-02-21T06:27:04;49.85;;;15.57;;
54831;SDS011;40730;53.068;6.572;2024-02-21T06:29:33;55.20;;;16.30;;
54831;SDS011;40730;53.068;6.572;2024-02-21T06:31:59;54.35;;;15.95;;
54831;SDS011;40730;53.068;6.572;2024-02-21T06:34:24;50.30;;;15.52;;
54831;SDS011;40730;53.068;6.572;2024-02-21T06:36:50;57.10;;;15.88;;
54831;SDS011;40730;53.068;6.572;2024-02-21T06:39:16;59.92;;;16.45;;
54831;SDS011;40730;53.068;6.572;2024-02-21T06:41:42;61.28;;;16.05;;
54831;SDS011;40730;53.068;6.572;2024-02-21T06:44:08;56.58;;;15.63;;
54831;SDS011;40730;53.068;6.572;2024-02-21T06:46:33;55.25;;;17.27;;
54831;SDS011;40730;53.068;6.572;2024-02-21T06:48:59;75.30;;;17.90;;
54831;SDS011;40730;53.068;6.572;2024-02-21T06:51:25;62.72;;;15.38;;
54831;SDS011;40730;53.068;6.572;2024-02-21T06:53:52;58.50;;;15.38;;
54831;SDS011;40730;53.068;6.572;2024-02-21T06:56:18;59.30;;;15.57;;
54831;SDS011;40730;53.068;6.572;2024-02-21T06:58:44;56.58;;;15.48;;
54831;SDS011;40730;53.068;6.572;2024-02-21T07:01:10;62.17;;;13.38;;
54831;SDS011;40730;53.068;6.572;2024-02-21T07:03:35;71.15;;;13.43;;
54831;SDS011;40730;53.068;6.572;2024-02-21T07:06:01;53.10;;;12.02;;
54831;SDS011;40730;53.068;6.572;2024-02-21T07:08:27;60.85;;;13.60;;
54831;SDS011;40730;53.068;6.572;2024-02-21T07:10:53;58.13;;;11.57;;
54831;SDS011;40730;53.068;6.572;2024-02-21T07:13:18;55.10;;;9.27;;
54831;SDS011;40730;53.068;6.572;2024-02-21T07:15:44;45.75;;;8.60;;
54831;SDS011;40730;53.068;6.572;2024-02-21T07:18:09;50.47;;;9.50;;
54831;SDS011;40730;53.068;6.572;2024-02-21T07:20:35;46.90;;;9.73;;
54831;SDS011;40730;53.068;6.572;2024-02-21T07:23:06;50.17;;;9.45;;
54831;SDS011;40730;53.068;6.572;2024-02-21T07:25:32;43.40;;;9.20;;
54831;SDS011;40730;53.068;6.572;2024-02-21T07:27:57;39.38;;;9.43;;
54831;SDS011;40730;53.068;6.572;2024-02-21T07:30:23;41.28;;;9.45;;
54831;SDS011;40730;53.068;6.572;2024-02-21T07:32:49;36.20;;;9.00;;
54831;SDS011;40730;53.068;6.572;2024-02-21T07:35:15;33.38;;;8.05;;
54831;SDS011;40730;53.068;6.572;2024-02-21T07:37:42;35.38;;;8.65;;
54831;SDS011;40730;53.068;6.572;2024-02-21T07:40:14;39.58;;;8.48;;
54831;SDS011;40730;53.068;6.572;2024-02-21T07:42:41;37.28;;;8.65;;
54831;SDS011;40730;53.068;6.572;2024-02-21T07:45:07;36.72;;;9.52;;
54831;SDS011;40730;53.068;6.572;2024-02-21T07:47:33;28.48;;;7.35;;
54831;SDS011;40730;53.068;6.572;2024-02-21T07:49:59;32.40;;;7.40;;
54831;SDS011;40730;53.068;6.572;2024-02-21T07:52:25;32.92;;;6.68;;
54831;SDS011;40730;53.068;6.572;2024-02-21T07:54:50;23.33;;;6.43;;
54831;SDS011;40730;53.068;6.572;2024-02-21T07:57:16;33.72;;;6.30;;
54831;SDS011;40730;53.068;6.572;2024-02-21T07:59:42;24.90;;;6.28;;
54831;SDS011;40730;53.068;6.572;2024-02-21T08:02:08;36.63;;;6.50;;
54831;SDS011;40730;53.068;6.572;2024-02-21T08:04:33;33.70;;;6.70;;
54831;SDS011;40730;53.068;6.572;2024-02-21T08:06:59;26.63;;;5.88;;
54831;SDS011;40730;53.068;6.572;2024-02-21T08:09:27;29.52;;;6.90;;
54831;SDS011;40730;53.068;6.572;2024-02-21T08:11:54;29.95;;;7.10;;
54831;SDS011;40730;53.068;6.572;2024-02-21T08:14:20;23.05;;;6.22;;
54831;SDS011;40730;53.068;6.572;2024-02-21T08:16:46;26.77;;;5.93;;
54831;SDS011;40730;53.068;6.572;2024-02-21T08:19:12;26.50;;;6.13;;
54831;SDS011;40730;53.068;6.572;2024-02-21T08:21:37;31.95;;;7.03;;
54831;SDS011;40730;53.068;6.572;2024-02-21T08:24:03;28.15;;;7.03;;
54831;SDS011;40730;53.068;6.572;2024-02-21T08:26:29;31.35;;;7.30;;
54831;SDS011;40730;53.068;6.572;2024-02-21T08:28:56;31.73;;;9.25;;
54831;SDS011;40730;53.068;6.572;2024-02-21T08:31:24;31.80;;;11.15;;
54831;SDS011;40730;53.068;6.572;2024-02-21T08:33:56;35.45;;;10.98;;
54831;SDS011;40730;53.068;6.572;2024-02-21T08:36:27;31.92;;;14.48;;
54831;SDS011;40730;53.068;6.572;2024-02-21T08:38:54;35.80;;;14.88;;
54831;SDS011;40730;53.068;6.572;2024-02-21T08:41:20;34.35;;;14.68;;
54831;SDS011;40730;53.068;6.572;2024-02-21T08:43:48;29.10;;;14.18;;
54831;SDS011;40730;53.068;6.572;2024-02-21T08:46:14;30.70;;;14.98;;
54831;SDS011;40730;53.068;6.572;2024-02-21T08:48:39;33.60;;;15.57;;
54831;SDS011;40730;53.068;6.572;2024-02-21T08:51:05;34.53;;;15.10;;
54831;SDS011;40730;53.068;6.572;2024-02-21T08:53:31;30.95;;;15.75;;
54831;SDS011;40730;53.068;6.572;2024-02-21T08:55:57;26.98;;;15.57;;
54831;SDS011;40730;53.068;6.572;2024-02-21T08:58:24;33.83;;;15.90;;
54831;SDS011;40730;53.068;6.572;2024-02-21T09:00:51;30.35;;;15.10;;
54831;SDS011;40730;53.068;6.572;2024-02-21T09:03:17;33.45;;;15.05;;
54831;SDS011;40730;53.068;6.572;2024-02-21T09:05:44;28.42;;;14.57;;
54831;SDS011;40730;53.068;6.572;2024-02-21T09:08:10;32.13;;;14.43;;
54831;SDS011;40730;53.068;6.572;2024-02-21T09:10:36;33.75;;;14.90;;
54831;SDS011;40730;53.068;6.572;2024-02-21T09:13:02;26.40;;;15.43;;
54831;SDS011;40730;53.068;6.572;2024-02-21T09:15:28;26.95;;;15.02;;
54831;SDS011;40730;53.068;6.572;2024-02-21T09:17:54;33.10;;;14.60;;
54831;SDS011;40730;53.068;6.572;2024-02-21T09:20:19;27.70;;;13.73;;
54831;SDS011;40730;53.068;6.572;2024-02-21T09:22:45;31.38;;;14.60;;
54831;SDS011;40730;53.068;6.572;2024-02-21T09:25:11;23.40;;;14.70;;
54831;SDS011;40730;53.068;6.572;2024-02-21T09:27:37;28.20;;;13.98;;
54831;SDS011;40730;53.068;6.572;2024-02-21T09:30:03;29.38;;;14.75;;
54831;SDS011;40730;53.068;6.572;2024-02-21T09:32:30;29.02;;;14.07;;
54831;SDS011;40730;53.068;6.572;2024-02-21T09:34:57;26.38;;;15.07;;
54831;SDS011;40730;53.068;6.572;2024-02-21T09:37:23;31.02;;;14.77;;
54831;SDS011;40730;53.068;6.572;2024-02-21T09:39:49;24.45;;;16.00;;
54831;SDS011;40730;53.068;6.572;2024-02-21T09:42:18;29.63;;;15.23;;
54831;SDS011;40730;53.068;6.572;2024-02-21T09:44:45;33.35;;;15.52;;
54831;SDS011;40730;53.068;6.572;2024-02-21T09:47:18;25.08;;;15.55;;
54831;SDS011;40730;53.068;6.572;2024-02-21T09:49:48;24.08;;;14.20;;
54831;SDS011;40730;53.068;6.572;2024-02-21T09:52:14;24.13;;;16.05;;
54831;SDS011;40730;53.068;6.572;2024-02-21T09:54:41;25.80;;;15.93;;
54831;SDS011;40730;53.068;6.572;2024-02-21T09:57:09;29.45;;;17.63;;
54831;SDS011;40730;53.068;6.572;2024-02-21T09:59:36;30.95;;;17.42;;
54831;SDS011;40730;53.068;6.572;2024-02-21T10:02:02;29.20;;;15.88;;
54831;SDS011;40730;53.068;6.572;2024-02-21T10:04:29;28.52;;;16.15;;
54831;SDS011;40730;53.068;6.572;2024-02-21T10:06:55;28.60;;;17.15;;
54831;SDS011;40730;53.068;6.572;2024-02-21T10:09:21;27.92;;;16.63;;
54831;SDS011;40730;53.068;6.572;2024-02-21T10:11:48;27.17;;;17.30;;
54831;SDS011;40730;53.068;6.572;2024-02-21T10:14:15;29.02;;;17.17;;
54831;SDS011;40730;53.068;6.572;2024-02-21T10:16:41;24.98;;;17.77;;
54831;SDS011;40730;53.068;6.572;2024-02-21T10:19:15;35.15;;;18.33;;
54831;SDS011;40730;53.068;6.572;2024-02-21T10:21:44;25.38;;;16.50;;
54831;SDS011;40730;53.068;6.572;2024-02-21T10:24:28;29.50;;;16.73;;
54831;SDS011;40730;53.068;6.572;2024-02-21T10:26:58;26.55;;;17.65;;
54831;SDS011;40730;53.068;6.572;2024-02-21T10:29:27;27.50;;;17.92;;
54831;SDS011;40730;53.068;6.572;2024-02-21T10:31:52;32.15;;;17.25;;
54831;SDS011;40730;53.068;6.572;2024-02-21T10:34:32;26.95;;;17.83;;
54831;SDS011;40730;53.068;6.572;2024-02-21T10:37:04;32.30;;;16.75;;
54831;SDS011;40730;53.068;6.572;2024-02-21T10:39:34;28.30;;;16.80;;
54831;SDS011;40730;53.068;6.572;2024-02-21T10:42:04;26.58;;;17.48;;
54831;SDS011;40730;53.068;6.572;2024-02-21T10:44:34;32.17;;;17.75;;
54831;SDS011;40730;53.068;6.572;2024-02-21T10:47:05;28.17;;;16.52;;
54831;SDS011;40730;53.068;6.572;2024-02-21T10:49:34;24.02;;;15.90;;
54831;SDS011;40730;53.068;6.572;2024-02-21T10:54:48;27.95;;;15.32;;
54831;SDS011;40730;53.068;6.572;2024-02-21T10:57:22;24.98;;;16.00;;
54831;SDS011;40730;53.068;6.572;2024-02-21T10:59:48;23.45;;;15.50;;
54831;SDS011;40730;53.068;6.572;2024-02-21T11:02:15;22.80;;;15.18;;
54831;SDS011;40730;53.068;6.572;2024-02-21T11:04:41;20.67;;;14.15;;
54831;SDS011;40730;53.068;6.572;2024-02-21T11:07:08;20.70;;;13.45;;
54831;SDS011;40730;53.068;6.572;2024-02-21T11:09:34;25.77;;;14.40;;
54831;SDS011;40730;53.068;6.572;2024-02-21T11:12:03;25.02;;;13.82;;
54831;SDS011;40730;53.068;6.572;2024-02-21T11:14:30;20.30;;;12.82;;
54831;SDS011;40730;53.068;6.572;2024-02-21T11:17:14;17.42;;;11.82;;
54831;SDS011;40730;53.068;6.572;2024-02-21T11:19:43;21.58;;;10.50;;
54831;SDS011;40730;53.068;6.572;2024-02-21T11:22:16;20.33;;;11.73;;
54831;SDS011;40730;53.068;6.572;2024-02-21T11:24:43;17.42;;;11.13;;
54831;SDS011;40730;53.068;6.572;2024-02-21T11:27:12;18.88;;;10.90;;
54831;SDS011;40730;53.068;6.572;2024-02-21T11:29:45;18.25;;;10.38;;
54831;SDS011;40730;53.068;6.572;2024-02-21T11:32:15;21.05;;;10.77;;
54831;SDS011;40730;53.068;6.572;2024-02-21T11:37:26;18.65;;;10.80;;
54831;SDS011;40730;53.068;6.572;2024-02-21T11:39:52;19.92;;;10.52;;
54831;SDS011;40730;53.068;6.572;2024-02-21T11:42:18;21.38;;;10.15;;
54831;SDS011;40730;53.068;6.572;2024-02-21T11:44:45;20.83;;;9.80;;
54831;SDS011;40730;53.068;6.572;2024-02-21T11:47:10;17.55;;;9.50;;
54831;SDS011;40730;53.068;6.572;2024-02-21T11:49:37;18.20;;;8.98;;
54831;SDS011;40730;53.068;6.572;2024-02-21T11:52:04;17.10;;;10.05;;
54831;SDS011;40730;53.068;6.572;2024-02-21T11:54:30;16.85;;;9.45;;
54831;SDS011;40730;53.068;6.572;2024-02-21T11:56:56;17.85;;;9.48;;
54831;SDS011;40730;53.068;6.572;2024-02-21T11:59:22;13.63;;;8.27;;
54831;SDS011;40730;53.068;6.572;2024-02-21T12:01:48;16.27;;;8.48;;
54831;SDS011;40730;53.068;6.572;2024-02-21T12:04:15;13.77;;;8.07;;
54831;SDS011;40730;53.068;6.572;2024-02-21T12:06:42;14.90;;;8.13;;
54831;SDS011;40730;53.068;6.572;2024-02-21T12:09:09;14.43;;;8.18;;
54831;SDS011;40730;53.068;6.572;2024-02-21T12:11:38;12.23;;;8.40;;
54831;SDS011;40730;53.068;6.572;2024-02-21T12:14:04;16.30;;;8.32;;
54831;SDS011;40730;53.068;6.572;2024-02-21T12:16:30;14.50;;;7.25;;
54831;SDS011;40730;53.068;6.572;2024-02-21T12:18:57;13.57;;;7.65;;
54831;SDS011;40730;53.068;6.572;2024-02-21T12:21:24;15.85;;;7.32;;
54831;SDS011;40730;53.068;6.572;2024-02-21T12:23:58;15.73;;;7.43;;
54831;SDS011;40730;53.068;6.572;2024-02-21T12:26:24;12.85;;;7.18;;
54831;SDS011;40730;53.068;6.572;2024-02-21T12:28:50;14.85;;;7.72;;
54831;SDS011;40730;53.068;6.572;2024-02-21T12:31:16;12.00;;;7.50;;
54831;SDS011;40730;53.068;6.572;2024-02-21T12:33:42;17.77;;;7.35;;
54831;SDS011;40730;53.068;6.572;2024-02-21T12:36:08;12.27;;;6.55;;
54831;SDS011;40730;53.068;6.572;2024-02-21T12:38:34;13.80;;;7.10;;
54831;SDS011;40730;53.068;6.572;2024-02-21T12:41:00;10.30;;;6.95;;
54831;SDS011;40730;53.068;6.572;2024-02-21T12:43:26;14.45;;;6.88;;
54831;SDS011;40730;53.068;6.572;2024-02-21T12:45:52;13.20;;;6.53;;
54831;SDS011;40730;53.068;6.572;2024-02-21T12:48:18;12.73;;;7.13;;
54831;SDS011;40730;53.068;6.572;2024-02-21T12:50:50;10.45;;;6.63;;
54831;SDS011;40730;53.068;6.572;2024-02-21T12:53:19;12.02;;;7.05;;
54831;SDS011;40730;53.068;6.572;2024-02-21T12:55:49;12.15;;;6.78;;
54831;SDS011;40730;53.068;6.572;2024-02-21T12:58:15;11.50;;;6.95;;
54831;SDS011;40730;53.068;6.572;2024-02-21T13:00:41;9.02;;;6.25;;
54831;SDS011;40730;53.068;6.572;2024-02-21T13:03:13;11.23;;;6.60;;
54831;SDS011;40730;53.068;6.572;2024-02-21T13:05:39;12.23;;;6.30;;
54831;SDS011;40730;53.068;6.572;2024-02-21T13:08:14;11.18;;;5.55;;
54831;SDS011;40730;53.068;6.572;2024-02-21T13:10:39;11.23;;;5.40;;
54831;SDS011;40730;53.068;6.572;2024-02-21T13:13:05;9.30;;;5.55;;
54831;SDS011;40730;53.068;6.572;2024-02-21T13:15:30;10.20;;;5.18;;
54831;SDS011;40730;53.068;6.572;2024-02-21T13:17:56;9.85;;;4.90;;
54831;SDS011;40730;53.068;6.572;2024-02-21T13:20:23;7.55;;;6.18;;
54831;SDS011;40730;53.068;6.572;2024-02-21T13:22:50;9.15;;;5.47;;
54831;SDS011;40730;53.068;6.572;2024-02-21T13:25:16;8.35;;;4.65;;
54831;SDS011;40730;53.068;6.572;2024-02-21T13:27:45;8.60;;;4.25;;
54831;SDS011;40730;53.068;6.572;2024-02-21T13:30:11;8.50;;;4.47;;
54831;SDS011;40730;53.068;6.572;2024-02-21T13:32:38;7.05;;;4.18;;
54831;SDS011;40730;53.068;6.572;2024-02-21T13:35:04;7.20;;;4.68;;
54831;SDS011;40730;53.068;6.572;2024-02-21T13:37:30;8.00;;;4.60;;
54831;SDS011;40730;53.068;6.572;2024-02-21T13:39:56;8.40;;;7.13;;
54831;SDS011;40730;53.068;6.572;2024-02-21T13:42:22;8.10;;;4.68;;
54831;SDS011;40730;53.068;6.572;2024-02-21T13:44:48;6.18;;;3.80;;
54831;SDS011;40730;53.068;6.572;2024-02-21T13:47:14;5.40;;;4.13;;
54831;SDS011;40730;53.068;6.572;2024-02-21T13:49:40;5.53;;;4.00;;
54831;SDS011;40730;53.068;6.572;2024-02-21T13:52:06;5.03;;;4.00;;
54831;SDS011;40730;53.068;6.572;2024-02-21T13:54:34;7.70;;;4.38;;
54831;SDS011;40730;53.068;6.572;2024-02-21T13:56:59;7.00;;;4.25;;
54831;SDS011;40730;53.068;6.572;2024-02-21T13:59:27;7.35;;;4.13;;
54831;SDS011;40730;53.068;6.572;2024-02-21T14:01:53;5.50;;;3.95;;
54831;SDS011;40730;53.068;6.572;2024-02-21T14:04:19;6.15;;;4.07;;
54831;SDS011;40730;53.068;6.572;2024-02-21T14:06:45;7.32;;;4.53;;
54831;SDS011;40730;53.068;6.572;2024-02-21T14:09:11;5.45;;;3.88;;
54831;SDS011;40730;53.068;6.572;2024-02-21T14:11:39;6.03;;;4.47;;
54831;SDS011;40730;53.068;6.572;2024-02-21T14:14:06;7.07;;;4.97;;
54831;SDS011;40730;53.068;6.572;2024-02-21T14:16:32;8.55;;;4.47;;
54831;SDS011;40730;53.068;6.572;2024-02-21T14:18:58;6.40;;;4.50;;
54831;SDS011;40730;53.068;6.572;2024-02-21T14:21:24;9.15;;;4.70;;
54831;SDS011;40730;53.068;6.572;2024-02-21T14:23:50;10.77;;;4.95;;
54831;SDS011;40730;53.068;6.572;2024-02-21T14:26:17;7.28;;;4.57;;
54831;SDS011;40730;53.068;6.572;2024-02-21T14:28:43;8.13;;;4.32;;
54831;SDS011;40730;53.068;6.572;2024-02-21T14:31:09;7.30;;;4.50;;
54831;SDS011;40730;53.068;6.572;2024-02-21T14:33:35;9.25;;;4.70;;